sensor_id;sensor_type;location;lat;lon;timestamp;P1;durP1;ratioP1;P2;durP2;ratioP2
55254;SDS011;41118;44.634;11.182;2023-02-28T00:01:24;2.15;;;0.40;;
55254;SDS011;41118;44.634;11.182;2023-02-28T00:03:50;4.93;;;0.50;;
55254;SDS011;41118;44.634;11.182;2023-02-28T00:06:17;2.30;;;0.40;;
55254;SDS011;41118;44.634;11.182;2023-02-28T00:08:43;1.45;;;0.30;;
55254;SDS011;41118;44.634;11.182;2023-02-28T00:11:10;3.90;;;0.32;;
55254;SDS011;41118;44.634;11.182;2023-02-28T00:13:38;3.08;;;0.30;;
55254;SDS011;41118;44.634;11.182;2023-02-28T00:16:09;3.15;;;0.50;;
55254;SDS011;41118;44.634;11.182;2023-02-28T00:18:35;4.30;;;0.38;;
55254;SDS011;41118;44.634;11.182;2023-02-28T00:21:01;4.53;;;0.45;;
55254;SDS011;41118;44.634;11.182;2023-02-28T00:23:27;3.13;;;0.30;;
55254;SDS011;41118;44.634;11.182;2023-02-28T00:25:54;1.13;;;0.30;;
55254;SDS011;41118;44.634;11.182;2023-02-28T00:28:20;1.65;;;0.30;;
55254;SDS011;41118;44.634;11.182;2023-02-28T00:30:46;1.90;;;0.32;;
55254;SDS011;41118;44.634;11.182;2023-02-28T00:33:13;3.67;;;0.45;;
55254;SDS011;41118;44.634;11.182;2023-02-28T00:35:39;3.53;;;0.30;;
55254;SDS011;41118;44.634;11.182;2023-02-28T00:38:05;1.15;;;0.30;;
55254;SDS011;41118;44.634;11.182;2023-02-28T00:40:31;3.35;;;0.30;;
55254;SDS011;41118;44.634;11.182;2023-02-28T00:42:58;1.27;;;0.35;;
55254;SDS011;41118;44.634;11.182;2023-02-28T00:45:24;2.70;;;0.50;;
55254;SDS011;41118;44.634;11.182;2023-02-28T00:47:50;2.45;;;0.40;;
55254;SDS011;41118;44.634;11.182;2023-02-28T00:50:17;5.05;;;0.50;;
55254;SDS011;41118;44.634;11.182;2023-02-28T00:52:44;2.55;;;0.40;;
55254;SDS011;41118;44.634;11.182;2023-02-28T00:55:10;2.90;;;0.40;;
55254;SDS011;41118;44.634;11.182;2023-02-28T00:57:37;3.30;;;0.40;;
55254;SDS011;41118;44.634;11.182;2023-02-28T01:00:03;5.93;;;0.50;;
55254;SDS011;41118;44.634;11.182;2023-02-28T01:02:30;10.63;;;1.15;;
55254;SDS011;41118;44.634;11.182;2023-02-28T01:04:57;2.35;;;0.50;;
55254;SDS011;41118;44.634;11.182;2023-02-28T01:07:23;1.60;;;0.30;;
55254;SDS011;41118;44.634;11.182;2023-02-28T01:09:49;3.10;;;0.50;;
55254;SDS011;41118;44.634;11.182;2023-02-28T01:12:16;1.63;;;0.38;;
55254;SDS011;41118;44.634;11.182;2023-02-28T01:14:42;1.20;;;0.35;;
55254;SDS011;41118;44.634;11.182;2023-02-28T01:17:08;3.13;;;0.40;;
55254;SDS011;41118;44.634;11.182;2023-02-28T01:19:34;4.07;;;0.30;;
55254;SDS011;41118;44.634;11.182;2023-02-28T01:22:02;3.08;;;0.70;;
55254;SDS011;41118;44.634;11.182;2023-02-28T01:24:28;2.85;;;0.40;;
55254;SDS011;41118;44.634;11.182;2023-02-28T01:26:54;1.60;;;0.50;;
55254;SDS011;41118;44.634;11.182;2023-02-28T01:29:20;3.63;;;0.30;;
55254;SDS011;41118;44.634;11.182;2023-02-28T01:31:46;2.88;;;0.63;;
55254;SDS011;41118;44.634;11.182;2023-02-28T01:34:13;1.23;;;0.32;;
55254;SDS011;41118;44.634;11.182;2023-02-28T01:36:39;1.00;;;0.30;;
55254;SDS011;41118;44.634;11.182;2023-02-28T01:39:05;2.45;;;0.40;;
55254;SDS011;41118;44.634;11.182;2023-02-28T01:41:32;1.33;;;0.30;;
55254;SDS011;41118;44.634;11.182;2023-02-28T01:44:05;1.33;;;0.30;;
55254;SDS011;41118;44.634;11.182;2023-02-28T01:46:35;1.50;;;0.30;;
55254;SDS011;41118;44.634;11.182;2023-02-28T01:49:04;2.15;;;0.40;;
55254;SDS011;41118;44.634;11.182;2023-02-28T01:54:02;1.83;;;0.30;;
55254;SDS011;41118;44.634;11.182;2023-02-28T01:56:30;2.33;;;0.40;;
55254;SDS011;41118;44.634;11.182;2023-02-28T01:58:58;3.67;;;0.43;;
55254;SDS011;41118;44.634;11.182;2023-02-28T02:01:25;3.35;;;0.40;;
55254;SDS011;41118;44.634;11.182;2023-02-28T02:03:53;1.42;;;0.30;;
55254;SDS011;41118;44.634;11.182;2023-02-28T02:06:30;1.00;;;0.20;;
55254;SDS011;41118;44.634;11.182;2023-02-28T02:08:59;2.10;;;0.22;;
55254;SDS011;41118;44.634;11.182;2023-02-28T02:11:26;1.38;;;0.50;;
55254;SDS011;41118;44.634;11.182;2023-02-28T02:14:31;2.40;;;0.32;;
55254;SDS011;41118;44.634;11.182;2023-02-28T02:42:16;2.10;;;0.30;;
55254;SDS011;41118;44.634;11.182;2023-02-28T02:44:47;2.08;;;0.30;;
55254;SDS011;41118;44.634;11.182;2023-02-28T02:47:16;5.43;;;0.80;;
55254;SDS011;41118;44.634;11.182;2023-02-28T02:49:44;2.47;;;0.30;;
55254;SDS011;41118;44.634;11.182;2023-02-28T02:52:13;2.00;;;0.30;;
55254;SDS011;41118;44.634;11.182;2023-02-28T02:54:41;3.58;;;0.30;;
55254;SDS011;41118;44.634;11.182;2023-02-28T02:57:11;2.03;;;0.50;;
55254;SDS011;41118;44.634;11.182;2023-02-28T02:59:38;1.83;;;0.30;;
55254;SDS011;41118;44.634;11.182;2023-02-28T03:02:06;1.70;;;0.30;;
55254;SDS011;41118;44.634;11.182;2023-02-28T03:04:34;1.48;;;0.30;;
55254;SDS011;41118;44.634;11.182;2023-02-28T03:07:04;1.48;;;0.30;;
55254;SDS011;41118;44.634;11.182;2023-02-28T03:09:32;2.95;;;0.30;;
55254;SDS011;41118;44.634;11.182;2023-02-28T03:11:59;1.15;;;0.30;;
55254;SDS011;41118;44.634;11.182;2023-02-28T03:16:59;3.10;;;0.45;;
55254;SDS011;41118;44.634;11.182;2023-02-28T03:27:11;3.83;;;0.30;;
55254;SDS011;41118;44.634;11.182;2023-02-28T03:29:39;2.08;;;0.40;;
55254;SDS011;41118;44.634;11.182;2023-02-28T03:32:11;2.20;;;0.30;;
55254;SDS011;41118;44.634;11.182;2023-02-28T03:34:43;2.97;;;0.20;;
55254;SDS011;41118;44.634;11.182;2023-02-28T03:37:13;3.00;;;0.40;;
55254;SDS011;41118;44.634;11.182;2023-02-28T03:39:45;1.20;;;0.30;;
55254;SDS011;41118;44.634;11.182;2023-02-28T03:42:18;2.80;;;0.30;;
55254;SDS011;41118;44.634;11.182;2023-02-28T03:44:46;1.50;;;0.32;;
55254;SDS011;41118;44.634;11.182;2023-02-28T03:47:15;3.72;;;0.30;;
55254;SDS011;41118;44.634;11.182;2023-02-28T03:49:44;3.75;;;0.25;;
55254;SDS011;41118;44.634;11.182;2023-02-28T03:52:12;1.20;;;0.30;;
55254;SDS011;41118;44.634;11.182;2023-02-28T03:54:41;2.08;;;0.30;;
55254;SDS011;41118;44.634;11.182;2023-02-28T03:59:42;6.38;;;0.30;;
55254;SDS011;41118;44.634;11.182;2023-02-28T04:02:09;1.73;;;0.30;;
55254;SDS011;41118;44.634;11.182;2023-02-28T04:04:35;2.40;;;0.43;;
55254;SDS011;41118;44.634;11.182;2023-02-28T04:07:03;1.48;;;0.40;;
55254;SDS011;41118;44.634;11.182;2023-02-28T04:09:30;2.65;;;0.40;;
55254;SDS011;41118;44.634;11.182;2023-02-28T04:11:56;1.42;;;0.30;;
55254;SDS011;41118;44.634;11.182;2023-02-28T04:14:23;4.03;;;0.60;;
55254;SDS011;41118;44.634;11.182;2023-02-28T04:16:49;2.88;;;0.50;;
55254;SDS011;41118;44.634;11.182;2023-02-28T04:19:16;4.93;;;0.40;;
55254;SDS011;41118;44.634;11.182;2023-02-28T04:21:46;3.58;;;0.40;;
55254;SDS011;41118;44.634;11.182;2023-02-28T04:24:14;7.10;;;0.75;;
55254;SDS011;41118;44.634;11.182;2023-02-28T04:26:42;2.78;;;0.40;;
55254;SDS011;41118;44.634;11.182;2023-02-28T04:29:09;1.92;;;0.30;;
55254;SDS011;41118;44.634;11.182;2023-02-28T04:31:35;1.58;;;0.60;;
55254;SDS011;41118;44.634;11.182;2023-02-28T04:34:02;2.35;;;1.10;;
55254;SDS011;41118;44.634;11.182;2023-02-28T04:36:28;2.53;;;0.30;;
55254;SDS011;41118;44.634;11.182;2023-02-28T04:38:55;1.20;;;0.30;;
55254;SDS011;41118;44.634;11.182;2023-02-28T04:41:21;3.42;;;0.40;;
55254;SDS011;41118;44.634;11.182;2023-02-28T04:43:47;2.53;;;0.60;;
55254;SDS011;41118;44.634;11.182;2023-02-28T04:46:13;1.35;;;0.30;;
55254;SDS011;41118;44.634;11.182;2023-02-28T04:48:40;3.08;;;0.40;;
55254;SDS011;41118;44.634;11.182;2023-02-28T04:51:07;4.07;;;0.40;;
55254;SDS011;41118;44.634;11.182;2023-02-28T04:53:34;3.20;;;0.40;;
55254;SDS011;41118;44.634;11.182;2023-02-28T04:56:00;2.83;;;0.40;;
55254;SDS011;41118;44.634;11.182;2023-02-28T04:58:27;3.00;;;0.43;;
55254;SDS011;41118;44.634;11.182;2023-02-28T05:00:53;1.20;;;0.40;;
55254;SDS011;41118;44.634;11.182;2023-02-28T05:03:20;2.47;;;0.40;;
55254;SDS011;41118;44.634;11.182;2023-02-28T05:05:47;1.45;;;0.30;;
55254;SDS011;41118;44.634;11.182;2023-02-28T05:08:13;2.78;;;0.40;;
55254;SDS011;41118;44.634;11.182;2023-02-28T05:10:40;1.58;;;0.30;;
55254;SDS011;41118;44.634;11.182;2023-02-28T05:13:06;2.50;;;0.30;;
55254;SDS011;41118;44.634;11.182;2023-02-28T05:15:32;3.42;;;0.40;;
55254;SDS011;41118;44.634;11.182;2023-02-28T05:17:58;1.90;;;0.50;;
55254;SDS011;41118;44.634;11.182;2023-02-28T05:20:24;2.47;;;0.38;;
55254;SDS011;41118;44.634;11.182;2023-02-28T05:22:50;1.75;;;0.60;;
55254;SDS011;41118;44.634;11.182;2023-02-28T05:25:19;4.32;;;0.40;;
55254;SDS011;41118;44.634;11.182;2023-02-28T05:27:46;1.23;;;0.50;;
55254;SDS011;41118;44.634;11.182;2023-02-28T05:30:13;5.18;;;0.45;;
55254;SDS011;41118;44.634;11.182;2023-02-28T05:32:39;2.00;;;0.40;;
55254;SDS011;41118;44.634;11.182;2023-02-28T05:35:07;5.60;;;0.30;;
55254;SDS011;41118;44.634;11.182;2023-02-28T05:37:33;2.17;;;0.38;;
55254;SDS011;41118;44.634;11.182;2023-02-28T05:40:00;1.77;;;0.40;;
55254;SDS011;41118;44.634;11.182;2023-02-28T05:42:26;1.40;;;0.40;;
55254;SDS011;41118;44.634;11.182;2023-02-28T05:44:53;2.53;;;0.50;;
55254;SDS011;41118;44.634;11.182;2023-02-28T05:47:19;2.47;;;0.30;;
55254;SDS011;41118;44.634;11.182;2023-02-28T05:49:45;1.70;;;0.75;;
55254;SDS011;41118;44.634;11.182;2023-02-28T05:52:11;2.78;;;0.47;;
55254;SDS011;41118;44.634;11.182;2023-02-28T05:54:38;3.25;;;0.50;;
55254;SDS011;41118;44.634;11.182;2023-02-28T05:57:04;8.52;;;2.15;;
55254;SDS011;41118;44.634;11.182;2023-02-28T05:59:30;4.97;;;0.80;;
55254;SDS011;41118;44.634;11.182;2023-02-28T06:01:56;5.13;;;0.40;;
55254;SDS011;41118;44.634;11.182;2023-02-28T06:04:23;1.42;;;0.50;;
55254;SDS011;41118;44.634;11.182;2023-02-28T06:06:49;3.42;;;0.47;;
55254;SDS011;41118;44.634;11.182;2023-02-28T06:09:16;2.35;;;0.40;;
55254;SDS011;41118;44.634;11.182;2023-02-28T06:11:42;2.33;;;0.47;;
55254;SDS011;41118;44.634;11.182;2023-02-28T06:14:16;2.40;;;0.57;;
55254;SDS011;41118;44.634;11.182;2023-02-28T06:16:43;2.38;;;0.40;;
55254;SDS011;41118;44.634;11.182;2023-02-28T06:19:09;2.38;;;0.40;;
55254;SDS011;41118;44.634;11.182;2023-02-28T06:21:35;1.50;;;0.50;;
55254;SDS011;41118;44.634;11.182;2023-02-28T06:24:02;1.52;;;0.45;;
55254;SDS011;41118;44.634;11.182;2023-02-28T06:26:28;1.58;;;0.40;;
55254;SDS011;41118;44.634;11.182;2023-02-28T06:28:54;1.48;;;0.65;;
55254;SDS011;41118;44.634;11.182;2023-02-28T06:31:21;1.75;;;0.40;;
55254;SDS011;41118;44.634;11.182;2023-02-28T06:33:48;2.70;;;0.40;;
55254;SDS011;41118;44.634;11.182;2023-02-28T06:36:15;6.80;;;0.68;;
55254;SDS011;41118;44.634;11.182;2023-02-28T06:38:41;4.20;;;0.60;;
55254;SDS011;41118;44.634;11.182;2023-02-28T06:41:08;6.28;;;0.50;;
55254;SDS011;41118;44.634;11.182;2023-02-28T06:43:36;5.20;;;0.75;;
55254;SDS011;41118;44.634;11.182;2023-02-28T06:46:03;5.88;;;0.60;;
55254;SDS011;41118;44.634;11.182;2023-02-28T06:48:29;3.33;;;0.82;;
55254;SDS011;41118;44.634;11.182;2023-02-28T06:51:02;5.50;;;0.40;;
55254;SDS011;41118;44.634;11.182;2023-02-28T06:53:29;4.57;;;0.40;;
55254;SDS011;41118;44.634;11.182;2023-02-28T06:55:55;4.07;;;0.40;;
55254;SDS011;41118;44.634;11.182;2023-02-28T06:58:21;3.50;;;0.43;;
55254;SDS011;41118;44.634;11.182;2023-02-28T07:00:50;2.42;;;0.60;;
55254;SDS011;41118;44.634;11.182;2023-02-28T07:03:16;2.65;;;0.40;;
55254;SDS011;41118;44.634;11.182;2023-02-28T07:05:43;3.33;;;0.70;;
55254;SDS011;41118;44.634;11.182;2023-02-28T07:08:09;6.68;;;0.50;;
55254;SDS011;41118;44.634;11.182;2023-02-28T07:10:38;6.10;;;0.70;;
55254;SDS011;41118;44.634;11.182;2023-02-28T07:13:04;4.78;;;0.50;;
55254;SDS011;41118;44.634;11.182;2023-02-28T07:15:31;2.45;;;0.50;;
55254;SDS011;41118;44.634;11.182;2023-02-28T07:17:57;1.58;;;0.52;;
55254;SDS011;41118;44.634;11.182;2023-02-28T07:20:24;2.83;;;0.63;;
55254;SDS011;41118;44.634;11.182;2023-02-28T07:22:50;2.92;;;0.65;;
55254;SDS011;41118;44.634;11.182;2023-02-28T07:25:23;11.48;;;0.50;;
55254;SDS011;41118;44.634;11.182;2023-02-28T07:27:49;3.67;;;0.40;;
55254;SDS011;41118;44.634;11.182;2023-02-28T07:30:15;3.90;;;0.85;;
55254;SDS011;41118;44.634;11.182;2023-02-28T07:32:41;5.43;;;0.70;;
55254;SDS011;41118;44.634;11.182;2023-02-28T07:35:08;1.58;;;0.50;;
55254;SDS011;41118;44.634;11.182;2023-02-28T07:37:34;3.95;;;0.47;;
55254;SDS011;41118;44.634;11.182;2023-02-28T07:40:07;2.58;;;0.63;;
55254;SDS011;41118;44.634;11.182;2023-02-28T07:42:36;4.20;;;0.77;;
55254;SDS011;41118;44.634;11.182;2023-02-28T07:45:02;2.17;;;0.60;;
55254;SDS011;41118;44.634;11.182;2023-02-28T07:47:29;2.85;;;0.80;;
55254;SDS011;41118;44.634;11.182;2023-02-28T07:49:55;1.77;;;0.40;;
55254;SDS011;41118;44.634;11.182;2023-02-28T07:52:21;2.65;;;0.50;;
55254;SDS011;41118;44.634;11.182;2023-02-28T07:54:48;4.28;;;0.80;;
55254;SDS011;41118;44.634;11.182;2023-02-28T07:57:14;2.53;;;1.05;;
55254;SDS011;41118;44.634;11.182;2023-02-28T07:59:41;4.32;;;0.40;;
55254;SDS011;41118;44.634;11.182;2023-02-28T08:02:10;2.42;;;0.52;;
55254;SDS011;41118;44.634;11.182;2023-02-28T08:04:38;3.78;;;0.55;;
55254;SDS011;41118;44.634;11.182;2023-02-28T08:07:04;2.53;;;0.40;;
55254;SDS011;41118;44.634;11.182;2023-02-28T08:09:30;3.40;;;1.10;;
55254;SDS011;41118;44.634;11.182;2023-02-28T08:11:56;2.95;;;1.13;;
55254;SDS011;41118;44.634;11.182;2023-02-28T08:14:22;2.60;;;0.63;;
55254;SDS011;41118;44.634;11.182;2023-02-28T08:16:49;2.50;;;0.63;;
55254;SDS011;41118;44.634;11.182;2023-02-28T08:19:15;2.80;;;0.60;;
55254;SDS011;41118;44.634;11.182;2023-02-28T08:21:42;1.98;;;0.52;;
55254;SDS011;41118;44.634;11.182;2023-02-28T08:24:08;2.17;;;0.50;;
55254;SDS011;41118;44.634;11.182;2023-02-28T08:26:34;3.35;;;0.60;;
55254;SDS011;41118;44.634;11.182;2023-02-28T08:29:00;2.70;;;0.43;;
55254;SDS011;41118;44.634;11.182;2023-02-28T08:31:26;4.47;;;0.50;;
55254;SDS011;41118;44.634;11.182;2023-02-28T08:33:52;2.13;;;0.45;;
55254;SDS011;41118;44.634;11.182;2023-02-28T08:36:21;3.00;;;0.93;;
55254;SDS011;41118;44.634;11.182;2023-02-28T08:38:47;2.80;;;0.60;;
55254;SDS011;41118;44.634;11.182;2023-02-28T08:41:13;1.63;;;0.40;;
55254;SDS011;41118;44.634;11.182;2023-02-28T08:43:40;4.72;;;0.40;;
55254;SDS011;41118;44.634;11.182;2023-02-28T08:46:07;3.72;;;0.40;;
55254;SDS011;41118;44.634;11.182;2023-02-28T08:48:34;2.30;;;0.63;;
55254;SDS011;41118;44.634;11.182;2023-02-28T08:51:04;4.75;;;0.47;;
55254;SDS011;41118;44.634;11.182;2023-02-28T08:53:31;4.00;;;0.40;;
55254;SDS011;41118;44.634;11.182;2023-02-28T08:55:59;2.60;;;0.43;;
55254;SDS011;41118;44.634;11.182;2023-02-28T08:58:25;5.63;;;0.80;;
55254;SDS011;41118;44.634;11.182;2023-02-28T09:00:51;6.20;;;0.80;;
55254;SDS011;41118;44.634;11.182;2023-02-28T09:03:18;5.97;;;0.85;;
55254;SDS011;41118;44.634;11.182;2023-02-28T09:05:55;2.47;;;0.40;;
55254;SDS011;41118;44.634;11.182;2023-02-28T09:08:21;2.63;;;0.50;;
55254;SDS011;41118;44.634;11.182;2023-02-28T09:10:47;2.33;;;0.65;;
55254;SDS011;41118;44.634;11.182;2023-02-28T09:13:13;2.20;;;0.35;;
55254;SDS011;41118;44.634;11.182;2023-02-28T09:15:39;8.13;;;0.50;;
55254;SDS011;41118;44.634;11.182;2023-02-28T09:18:05;1.90;;;0.57;;
55254;SDS011;41118;44.634;11.182;2023-02-28T09:20:31;4.22;;;0.60;;
55254;SDS011;41118;44.634;11.182;2023-02-28T09:22:57;3.60;;;0.50;;
55254;SDS011;41118;44.634;11.182;2023-02-28T09:25:24;2.42;;;0.47;;
55254;SDS011;41118;44.634;11.182;2023-02-28T09:27:50;1.52;;;0.40;;
55254;SDS011;41118;44.634;11.182;2023-02-28T09:30:16;3.78;;;0.40;;
55254;SDS011;41118;44.634;11.182;2023-02-28T09:32:42;1.65;;;0.40;;
55254;SDS011;41118;44.634;11.182;2023-02-28T09:35:16;2.83;;;0.50;;
55254;SDS011;41118;44.634;11.182;2023-02-28T09:37:43;3.80;;;0.40;;
55254;SDS011;41118;44.634;11.182;2023-02-28T09:40:10;3.40;;;0.40;;
55254;SDS011;41118;44.634;11.182;2023-02-28T09:42:37;5.68;;;0.60;;
55254;SDS011;41118;44.634;11.182;2023-02-28T09:45:05;7.35;;;0.50;;
55254;SDS011;41118;44.634;11.182;2023-02-28T09:47:34;3.60;;;0.65;;
55254;SDS011;41118;44.634;11.182;2023-02-28T09:50:36;3.42;;;0.45;;
55254;SDS011;41118;44.634;11.182;2023-02-28T09:52:54;2.50;;;0.68;;
55254;SDS011;41118;44.634;11.182;2023-02-28T09:57:47;4.40;;;0.45;;
55254;SDS011;41118;44.634;11.182;2023-02-28T10:00:28;4.65;;;0.63;;
55254;SDS011;41118;44.634;11.182;2023-02-28T10:08:06;4.05;;;0.40;;
55254;SDS011;41118;44.634;11.182;2023-02-28T10:10:43;2.45;;;0.50;;
55254;SDS011;41118;44.634;11.182;2023-02-28T10:15:39;5.22;;;0.60;;
55254;SDS011;41118;44.634;11.182;2023-02-28T10:18:09;2.63;;;0.70;;
55254;SDS011;41118;44.634;11.182;2023-02-28T10:20:39;5.35;;;0.57;;
55254;SDS011;41118;44.634;11.182;2023-02-28T10:23:28;8.95;;;0.82;;
55254;SDS011;41118;44.634;11.182;2023-02-28T10:26:15;2.38;;;0.40;;
55254;SDS011;41118;44.634;11.182;2023-02-28T10:28:41;5.25;;;0.70;;
55254;SDS011;41118;44.634;11.182;2023-02-28T10:31:08;5.03;;;0.80;;
55254;SDS011;41118;44.634;11.182;2023-02-28T10:33:37;3.72;;;0.65;;
55254;SDS011;41118;44.634;11.182;2023-02-28T10:36:03;3.65;;;0.70;;
55254;SDS011;41118;44.634;11.182;2023-02-28T10:41:03;4.57;;;0.57;;
55254;SDS011;41118;44.634;11.182;2023-02-28T10:43:29;5.10;;;0.47;;
55254;SDS011;41118;44.634;11.182;2023-02-28T10:46:00;1.95;;;0.50;;
55254;SDS011;41118;44.634;11.182;2023-02-28T10:48:32;5.00;;;0.93;;
55254;SDS011;41118;44.634;11.182;2023-02-28T10:50:58;5.13;;;0.60;;
55254;SDS011;41118;44.634;11.182;2023-02-28T10:53:30;3.88;;;0.70;;
55254;SDS011;41118;44.634;11.182;2023-02-28T10:58:47;3.90;;;0.50;;
55254;SDS011;41118;44.634;11.182;2023-02-28T11:01:15;3.42;;;0.68;;
55254;SDS011;41118;44.634;11.182;2023-02-28T11:03:41;2.70;;;0.40;;
55254;SDS011;41118;44.634;11.182;2023-02-28T11:06:08;5.68;;;0.60;;
55254;SDS011;41118;44.634;11.182;2023-02-28T11:08:46;3.65;;;0.40;;
55254;SDS011;41118;44.634;11.182;2023-02-28T11:11:13;3.67;;;0.82;;
55254;SDS011;41118;44.634;11.182;2023-02-28T11:13:39;2.33;;;0.40;;
55254;SDS011;41118;44.634;11.182;2023-02-28T11:16:07;2.40;;;0.45;;
55254;SDS011;41118;44.634;11.182;2023-02-28T11:21:14;2.85;;;0.50;;
55254;SDS011;41118;44.634;11.182;2023-02-28T11:23:42;2.58;;;0.55;;
55254;SDS011;41118;44.634;11.182;2023-02-28T11:26:08;3.88;;;0.93;;
55254;SDS011;41118;44.634;11.182;2023-02-28T11:28:37;7.65;;;0.50;;
55254;SDS011;41118;44.634;11.182;2023-02-28T11:31:05;4.80;;;0.70;;
55254;SDS011;41118;44.634;11.182;2023-02-28T11:33:45;2.42;;;0.40;;
55254;SDS011;41118;44.634;11.182;2023-02-28T11:36:15;4.95;;;0.80;;
55254;SDS011;41118;44.634;11.182;2023-02-28T11:38:42;3.33;;;0.40;;
55254;SDS011;41118;44.634;11.182;2023-02-28T11:41:30;4.07;;;0.60;;
55254;SDS011;41118;44.634;11.182;2023-02-28T11:46:41;5.88;;;0.40;;
55254;SDS011;41118;44.634;11.182;2023-02-28T11:52:02;5.03;;;0.55;;
55254;SDS011;41118;44.634;11.182;2023-02-28T11:57:22;6.03;;;0.93;;
55254;SDS011;41118;44.634;11.182;2023-02-28T12:00:00;3.63;;;0.77;;
55254;SDS011;41118;44.634;11.182;2023-02-28T12:02:34;7.28;;;1.45;;
55254;SDS011;41118;44.634;11.182;2023-02-28T12:10:12;5.00;;;1.38;;
55254;SDS011;41118;44.634;11.182;2023-02-28T12:15:27;1.75;;;0.40;;
55254;SDS011;41118;44.634;11.182;2023-02-28T12:23:25;4.45;;;0.77;;
55254;SDS011;41118;44.634;11.182;2023-02-28T12:28:25;5.70;;;1.27;;
55254;SDS011;41118;44.634;11.182;2023-02-28T12:31:03;3.88;;;0.60;;
55254;SDS011;41118;44.634;11.182;2023-02-28T12:33:33;2.45;;;0.40;;
55254;SDS011;41118;44.634;11.182;2023-02-28T12:36:00;3.17;;;0.98;;
55254;SDS011;41118;44.634;11.182;2023-02-28T12:38:31;7.88;;;2.25;;
55254;SDS011;41118;44.634;11.182;2023-02-28T12:41:00;3.83;;;0.80;;
55254;SDS011;41118;44.634;11.182;2023-02-28T12:43:52;4.55;;;0.60;;
55254;SDS011;41118;44.634;11.182;2023-02-28T12:46:23;3.90;;;0.93;;
55254;SDS011;41118;44.634;11.182;2023-02-28T12:48:57;2.20;;;0.70;;
55254;SDS011;41118;44.634;11.182;2023-02-28T12:51:25;3.13;;;0.75;;
55254;SDS011;41118;44.634;11.182;2023-02-28T12:58:57;5.85;;;0.50;;
55254;SDS011;41118;44.634;11.182;2023-02-28T13:01:36;5.65;;;0.80;;
55254;SDS011;41118;44.634;11.182;2023-02-28T13:09:21;3.60;;;0.60;;
55254;SDS011;41118;44.634;11.182;2023-02-28T13:11:49;5.30;;;0.68;;
55254;SDS011;41118;44.634;11.182;2023-02-28T13:19:36;9.98;;;0.50;;
55254;SDS011;41118;44.634;11.182;2023-02-28T13:22:03;4.47;;;0.98;;
55254;SDS011;41118;44.634;11.182;2023-02-28T13:24:41;3.40;;;0.45;;
55254;SDS011;41118;44.634;11.182;2023-02-28T13:29:37;2.95;;;0.63;;
55254;SDS011;41118;44.634;11.182;2023-02-28T13:39:57;6.13;;;0.40;;
55254;SDS011;41118;44.634;11.182;2023-02-28T13:52:44;2.42;;;0.47;;
55254;SDS011;41118;44.634;11.182;2023-02-28T14:00:15;2.90;;;0.50;;
55254;SDS011;41118;44.634;11.182;2023-02-28T14:05:19;2.20;;;0.45;;
55254;SDS011;41118;44.634;11.182;2023-02-28T14:07:55;4.10;;;0.50;;
55254;SDS011;41118;44.634;11.182;2023-02-28T14:10:25;4.20;;;0.50;;
55254;SDS011;41118;44.634;11.182;2023-02-28T14:12:57;4.82;;;0.90;;
55254;SDS011;41118;44.634;11.182;2023-02-28T14:15:25;1.35;;;0.43;;
55254;SDS011;41118;44.634;11.182;2023-02-28T14:17:54;4.28;;;0.80;;
55254;SDS011;41118;44.634;11.182;2023-02-28T14:20:21;1.95;;;0.52;;
55254;SDS011;41118;44.634;11.182;2023-02-28T14:22:52;2.08;;;0.50;;
55254;SDS011;41118;44.634;11.182;2023-02-28T14:28:04;2.60;;;0.43;;
55254;SDS011;41118;44.634;11.182;2023-02-28T14:33:38;4.53;;;0.75;;
55254;SDS011;41118;44.634;11.182;2023-02-28T14:36:26;4.22;;;0.70;;
55254;SDS011;41118;44.634;11.182;2023-02-28T14:38:57;4.43;;;1.40;;
55254;SDS011;41118;44.634;11.182;2023-02-28T14:41:32;4.45;;;0.60;;
55254;SDS011;41118;44.634;11.182;2023-02-28T14:44:02;6.82;;;1.23;;
55254;SDS011;41118;44.634;11.182;2023-02-28T14:46:35;6.75;;;1.52;;
55254;SDS011;41118;44.634;11.182;2023-02-28T14:49:03;7.60;;;2.00;;
55254;SDS011;41118;44.634;11.182;2023-02-28T14:51:30;5.07;;;1.17;;
55254;SDS011;41118;44.634;11.182;2023-02-28T14:53:57;6.07;;;1.10;;
55254;SDS011;41118;44.634;11.182;2023-02-28T14:56:30;9.57;;;2.15;;
55254;SDS011;41118;44.634;11.182;2023-02-28T14:58:58;4.93;;;0.98;;
55254;SDS011;41118;44.634;11.182;2023-02-28T15:01:25;6.68;;;2.03;;
55254;SDS011;41118;44.634;11.182;2023-02-28T15:03:58;7.07;;;1.30;;
55254;SDS011;41118;44.634;11.182;2023-02-28T15:06:26;5.97;;;1.35;;
55254;SDS011;41118;44.634;11.182;2023-02-28T15:09:14;6.45;;;1.45;;
55254;SDS011;41118;44.634;11.182;2023-02-28T15:11:40;5.93;;;1.23;;
55254;SDS011;41118;44.634;11.182;2023-02-28T15:14:12;5.22;;;1.45;;
55254;SDS011;41118;44.634;11.182;2023-02-28T15:16:40;19.02;;;2.22;;
55254;SDS011;41118;44.634;11.182;2023-02-28T15:19:11;5.13;;;1.23;;
55254;SDS011;41118;44.634;11.182;2023-02-28T15:21:43;7.55;;;1.20;;
55254;SDS011;41118;44.634;11.182;2023-02-28T15:24:17;8.88;;;1.45;;
55254;SDS011;41118;44.634;11.182;2023-02-28T15:26:49;4.93;;;1.13;;
55254;SDS011;41118;44.634;11.182;2023-02-28T15:29:19;4.13;;;0.85;;
55254;SDS011;41118;44.634;11.182;2023-02-28T15:31:50;4.50;;;1.77;;
55254;SDS011;41118;44.634;11.182;2023-02-28T15:36:48;9.02;;;3.03;;
55254;SDS011;41118;44.634;11.182;2023-02-28T15:39:19;5.95;;;1.48;;
55254;SDS011;41118;44.634;11.182;2023-02-28T15:41:45;4.80;;;1.70;;
55254;SDS011;41118;44.634;11.182;2023-02-28T15:44:23;8.20;;;1.80;;
55254;SDS011;41118;44.634;11.182;2023-02-28T15:49:47;8.38;;;1.25;;
55254;SDS011;41118;44.634;11.182;2023-02-28T15:52:15;8.60;;;1.13;;
55254;SDS011;41118;44.634;11.182;2023-02-28T15:54:42;7.28;;;2.30;;
55254;SDS011;41118;44.634;11.182;2023-02-28T15:57:28;12.40;;;2.17;;
55254;SDS011;41118;44.634;11.182;2023-02-28T15:59:55;5.18;;;1.48;;
55254;SDS011;41118;44.634;11.182;2023-02-28T16:02:29;6.13;;;2.50;;
55254;SDS011;41118;44.634;11.182;2023-02-28T16:07:24;6.68;;;2.55;;
55254;SDS011;41118;44.634;11.182;2023-02-28T16:09:50;4.18;;;2.35;;
55254;SDS011;41118;44.634;11.182;2023-02-28T16:12:17;9.85;;;2.78;;
55254;SDS011;41118;44.634;11.182;2023-02-28T16:14:44;9.20;;;2.13;;
55254;SDS011;41118;44.634;11.182;2023-02-28T16:17:16;9.48;;;2.97;;
55254;SDS011;41118;44.634;11.182;2023-02-28T16:19:45;4.88;;;2.40;;
55254;SDS011;41118;44.634;11.182;2023-02-28T16:22:11;9.63;;;3.25;;
55254;SDS011;41118;44.634;11.182;2023-02-28T16:24:38;9.65;;;2.78;;
55254;SDS011;41118;44.634;11.182;2023-02-28T16:27:05;11.27;;;2.83;;
55254;SDS011;41118;44.634;11.182;2023-02-28T16:29:32;8.65;;;2.97;;
55254;SDS011;41118;44.634;11.182;2023-02-28T16:32:00;12.23;;;3.50;;
55254;SDS011;41118;44.634;11.182;2023-02-28T16:34:27;6.22;;;3.20;;
55254;SDS011;41118;44.634;11.182;2023-02-28T16:36:53;16.65;;;4.60;;
55254;SDS011;41118;44.634;11.182;2023-02-28T16:39:22;7.72;;;2.53;;
55254;SDS011;41118;44.634;11.182;2023-02-28T16:41:51;11.52;;;4.20;;
55254;SDS011;41118;44.634;11.182;2023-02-28T16:44:24;9.25;;;2.75;;
55254;SDS011;41118;44.634;11.182;2023-02-28T16:46:52;9.45;;;3.38;;
55254;SDS011;41118;44.634;11.182;2023-02-28T16:49:18;15.15;;;2.53;;
55254;SDS011;41118;44.634;11.182;2023-02-28T16:51:45;8.77;;;3.53;;
55254;SDS011;41118;44.634;11.182;2023-02-28T16:54:12;11.52;;;3.33;;
55254;SDS011;41118;44.634;11.182;2023-02-28T16:56:38;14.93;;;4.05;;
55254;SDS011;41118;44.634;11.182;2023-02-28T16:59:07;11.95;;;4.03;;
55254;SDS011;41118;44.634;11.182;2023-02-28T17:01:33;13.43;;;3.67;;